sensor_id;sensor_type;location;lat;lon;timestamp;P1;durP1;ratioP1;P2;durP2;ratioP2
2874;SDS011;1445;52.600;13.328;2023-07-30T00:01:39;1.75;;;1.65;;
2874;SDS011;1445;52.600;13.328;2023-07-30T00:04:05;1.00;;;0.93;;
2874;SDS011;1445;52.600;13.328;2023-07-30T00:06:30;1.73;;;1.35;;
2874;SDS011;1445;52.600;13.328;2023-07-30T00:08:56;1.20;;;1.10;;
2874;SDS011;1445;52.600;13.328;2023-07-30T00:11:21;2.75;;;1.10;;
2874;SDS011;1445;52.600;13.328;2023-07-30T00:13:46;1.70;;;1.48;;
2874;SDS011;1445;52.600;13.328;2023-07-30T00:16:12;1.60;;;1.50;;
2874;SDS011;1445;52.600;13.328;2023-07-30T00:18:37;1.40;;;1.30;;
2874;SDS011;1445;52.600;13.328;2023-07-30T00:21:03;1.35;;;1.25;;
2874;SDS011;1445;52.600;13.328;2023-07-30T00:23:28;1.73;;;1.35;;
2874;SDS011;1445;52.600;13.328;2023-07-30T00:25:53;1.27;;;1.17;;
2874;SDS011;1445;52.600;13.328;2023-07-30T00:28:21;1.52;;;0.98;;
2874;SDS011;1445;52.600;13.328;2023-07-30T00:30:47;3.05;;;1.75;;
2874;SDS011;1445;52.600;13.328;2023-07-30T00:33:15;1.90;;;1.60;;
2874;SDS011;1445;52.600;13.328;2023-07-30T00:35:40;1.33;;;1.13;;
2874;SDS011;1445;52.600;13.328;2023-07-30T00:38:06;0.70;;;0.70;;
2874;SDS011;1445;52.600;13.328;2023-07-30T00:40:31;2.70;;;1.20;;
2874;SDS011;1445;52.600;13.328;2023-07-30T00:42:56;1.25;;;1.17;;
2874;SDS011;1445;52.600;13.328;2023-07-30T00:45:22;9.32;;;1.35;;
2874;SDS011;1445;52.600;13.328;2023-07-30T00:47:47;1.88;;;1.58;;
2874;SDS011;1445;52.600;13.328;2023-07-30T00:50:13;1.40;;;1.30;;
2874;SDS011;1445;52.600;13.328;2023-07-30T00:52:40;1.73;;;1.25;;
2874;SDS011;1445;52.600;13.328;2023-07-30T00:55:06;1.05;;;0.90;;
2874;SDS011;1445;52.600;13.328;2023-07-30T00:57:32;2.55;;;1.42;;
2874;SDS011;1445;52.600;13.328;2023-07-30T01:00:00;1.00;;;0.90;;
2874;SDS011;1445;52.600;13.328;2023-07-30T01:02:29;3.50;;;1.15;;
2874;SDS011;1445;52.600;13.328;2023-07-30T01:04:56;9.10;;;1.63;;
2874;SDS011;1445;52.600;13.328;2023-07-30T01:07:21;1.48;;;1.08;;
2874;SDS011;1445;52.600;13.328;2023-07-30T01:09:47;1.35;;;1.13;;
2874;SDS011;1445;52.600;13.328;2023-07-30T01:12:12;1.85;;;1.15;;
2874;SDS011;1445;52.600;13.328;2023-07-30T01:14:38;3.20;;;1.77;;
2874;SDS011;1445;52.600;13.328;2023-07-30T01:17:05;1.35;;;1.25;;
2874;SDS011;1445;52.600;13.328;2023-07-30T01:19:31;1.25;;;0.98;;
2874;SDS011;1445;52.600;13.328;2023-07-30T01:21:56;1.25;;;1.15;;
2874;SDS011;1445;52.600;13.328;2023-07-30T01:24:23;1.30;;;1.20;;
2874;SDS011;1445;52.600;13.328;2023-07-30T01:26:55;3.10;;;1.20;;
2874;SDS011;1445;52.600;13.328;2023-07-30T01:32:24;10.85;;;2.30;;
2874;SDS011;1445;52.600;13.328;2023-07-30T01:34:52;1.80;;;1.65;;
2874;SDS011;1445;52.600;13.328;2023-07-30T01:37:18;1.65;;;1.30;;
2874;SDS011;1445;52.600;13.328;2023-07-30T01:39:45;1.17;;;1.08;;
2874;SDS011;1445;52.600;13.328;2023-07-30T01:42:12;1.40;;;1.30;;
2874;SDS011;1445;52.600;13.328;2023-07-30T01:44:38;0.63;;;0.63;;
2874;SDS011;1445;52.600;13.328;2023-07-30T01:47:03;1.00;;;0.93;;
2874;SDS011;1445;52.600;13.328;2023-07-30T01:49:29;1.42;;;1.33;;
2874;SDS011;1445;52.600;13.328;2023-07-30T01:51:54;1.92;;;1.25;;
2874;SDS011;1445;52.600;13.328;2023-07-30T01:54:19;1.27;;;1.17;;
2874;SDS011;1445;52.600;13.328;2023-07-30T01:56:45;1.20;;;1.10;;
2874;SDS011;1445;52.600;13.328;2023-07-30T01:59:10;1.67;;;1.58;;
2874;SDS011;1445;52.600;13.328;2023-07-30T02:01:36;1.38;;;1.13;;
2874;SDS011;1445;52.600;13.328;2023-07-30T02:04:01;1.63;;;1.10;;
2874;SDS011;1445;52.600;13.328;2023-07-30T02:06:26;1.17;;;1.10;;
2874;SDS011;1445;52.600;13.328;2023-07-30T02:08:52;1.77;;;1.08;;
2874;SDS011;1445;52.600;13.328;2023-07-30T02:11:17;1.77;;;1.30;;
2874;SDS011;1445;52.600;13.328;2023-07-30T02:13:42;1.20;;;1.10;;
2874;SDS011;1445;52.600;13.328;2023-07-30T02:16:08;1.42;;;1.33;;
2874;SDS011;1445;52.600;13.328;2023-07-30T02:18:33;1.05;;;0.95;;
2874;SDS011;1445;52.600;13.328;2023-07-30T02:20:59;1.58;;;1.45;;
2874;SDS011;1445;52.600;13.328;2023-07-30T02:23:24;2.85;;;1.70;;
2874;SDS011;1445;52.600;13.328;2023-07-30T02:25:49;1.63;;;1.15;;
2874;SDS011;1445;52.600;13.328;2023-07-30T02:28:15;2.60;;;1.52;;
2874;SDS011;1445;52.600;13.328;2023-07-30T02:30:40;4.03;;;1.23;;
2874;SDS011;1445;52.600;13.328;2023-07-30T02:33:05;1.00;;;0.90;;
2874;SDS011;1445;52.600;13.328;2023-07-30T02:35:31;1.35;;;1.05;;
2874;SDS011;1445;52.600;13.328;2023-07-30T02:37:56;1.52;;;1.20;;
2874;SDS011;1445;52.600;13.328;2023-07-30T02:40:22;1.55;;;1.15;;
2874;SDS011;1445;52.600;13.328;2023-07-30T02:42:48;1.48;;;1.38;;
2874;SDS011;1445;52.600;13.328;2023-07-30T02:45:13;1.95;;;1.75;;
2874;SDS011;1445;52.600;13.328;2023-07-30T02:47:38;1.55;;;0.90;;
2874;SDS011;1445;52.600;13.328;2023-07-30T02:50:04;2.30;;;1.83;;
2874;SDS011;1445;52.600;13.328;2023-07-30T02:52:31;1.48;;;1.38;;
2874;SDS011;1445;52.600;13.328;2023-07-30T02:54:56;1.30;;;1.20;;
2874;SDS011;1445;52.600;13.328;2023-07-30T02:57:21;1.30;;;1.20;;
2874;SDS011;1445;52.600;13.328;2023-07-30T02:59:47;1.25;;;1.05;;
2874;SDS011;1445;52.600;13.328;2023-07-30T03:02:12;1.83;;;1.50;;
2874;SDS011;1445;52.600;13.328;2023-07-30T03:04:38;1.58;;;1.48;;
2874;SDS011;1445;52.600;13.328;2023-07-30T03:07:03;1.13;;;1.02;;
2874;SDS011;1445;52.600;13.328;2023-07-30T03:09:29;1.23;;;1.13;;
2874;SDS011;1445;52.600;13.328;2023-07-30T03:11:54;1.70;;;1.58;;
2874;SDS011;1445;52.600;13.328;2023-07-30T03:14:20;2.40;;;1.48;;
2874;SDS011;1445;52.600;13.328;2023-07-30T03:16:46;1.13;;;1.02;;
2874;SDS011;1445;52.600;13.328;2023-07-30T03:19:14;3.33;;;1.95;;
2874;SDS011;1445;52.600;13.328;2023-07-30T03:21:40;0.60;;;0.60;;
2874;SDS011;1445;52.600;13.328;2023-07-30T03:24:06;6.95;;;1.25;;
2874;SDS011;1445;52.600;13.328;2023-07-30T03:26:31;1.85;;;1.20;;
2874;SDS011;1445;52.600;13.328;2023-07-30T03:28:57;2.78;;;1.40;;
2874;SDS011;1445;52.600;13.328;2023-07-30T03:31:22;2.03;;;1.23;;
2874;SDS011;1445;52.600;13.328;2023-07-30T03:33:47;1.02;;;0.95;;
2874;SDS011;1445;52.600;13.328;2023-07-30T03:36:13;7.63;;;2.03;;
2874;SDS011;1445;52.600;13.328;2023-07-30T03:38:39;1.42;;;1.33;;
2874;SDS011;1445;52.600;13.328;2023-07-30T03:41:05;1.58;;;1.48;;
2874;SDS011;1445;52.600;13.328;2023-07-30T03:43:31;1.63;;;1.00;;
2874;SDS011;1445;52.600;13.328;2023-07-30T03:45:57;2.88;;;1.80;;
2874;SDS011;1445;52.600;13.328;2023-07-30T03:48:23;1.13;;;1.08;;
2874;SDS011;1445;52.600;13.328;2023-07-30T03:50:48;1.63;;;1.27;;
2874;SDS011;1445;52.600;13.328;2023-07-30T03:53:13;1.40;;;1.30;;
2874;SDS011;1445;52.600;13.328;2023-07-30T03:55:40;2.10;;;1.40;;
2874;SDS011;1445;52.600;13.328;2023-07-30T03:58:06;1.40;;;1.30;;
2874;SDS011;1445;52.600;13.328;2023-07-30T04:00:31;1.38;;;1.02;;
2874;SDS011;1445;52.600;13.328;2023-07-30T04:02:57;2.42;;;1.10;;
2874;SDS011;1445;52.600;13.328;2023-07-30T04:05:23;0.80;;;0.80;;
2874;SDS011;1445;52.600;13.328;2023-07-30T04:07:48;1.60;;;1.50;;
2874;SDS011;1445;52.600;13.328;2023-07-30T04:10:14;1.52;;;1.40;;
2874;SDS011;1445;52.600;13.328;2023-07-30T04:12:39;1.20;;;1.08;;
2874;SDS011;1445;52.600;13.328;2023-07-30T04:15:05;3.15;;;1.50;;
2874;SDS011;1445;52.600;13.328;2023-07-30T04:17:30;1.92;;;1.63;;
2874;SDS011;1445;52.600;13.328;2023-07-30T04:19:56;1.60;;;1.45;;
2874;SDS011;1445;52.600;13.328;2023-07-30T04:22:21;2.90;;;1.73;;
2874;SDS011;1445;52.600;13.328;2023-07-30T04:24:47;1.67;;;1.25;;
2874;SDS011;1445;52.600;13.328;2023-07-30T04:27:12;1.05;;;0.90;;
2874;SDS011;1445;52.600;13.328;2023-07-30T04:29:38;2.05;;;1.45;;
2874;SDS011;1445;52.600;13.328;2023-07-30T04:32:03;2.22;;;1.88;;
2874;SDS011;1445;52.600;13.328;2023-07-30T04:34:29;1.38;;;1.25;;
2874;SDS011;1445;52.600;13.328;2023-07-30T04:36:54;1.33;;;1.23;;
2874;SDS011;1445;52.600;13.328;2023-07-30T04:39:19;1.23;;;1.13;;
2874;SDS011;1445;52.600;13.328;2023-07-30T04:41:45;1.77;;;1.10;;
2874;SDS011;1445;52.600;13.328;2023-07-30T04:44:10;4.68;;;1.35;;
2874;SDS011;1445;52.600;13.328;2023-07-30T04:46:36;2.47;;;1.13;;
2874;SDS011;1445;52.600;13.328;2023-07-30T04:49:02;3.13;;;1.20;;
2874;SDS011;1445;52.600;13.328;2023-07-30T04:51:29;0.63;;;0.63;;
2874;SDS011;1445;52.600;13.328;2023-07-30T04:53:54;1.00;;;0.90;;
2874;SDS011;1445;52.600;13.328;2023-07-30T04:56:20;1.67;;;1.13;;
2874;SDS011;1445;52.600;13.328;2023-07-30T04:58:45;1.60;;;1.50;;
2874;SDS011;1445;52.600;13.328;2023-07-30T05:01:10;3.05;;;2.00;;
2874;SDS011;1445;52.600;13.328;2023-07-30T05:03:36;1.35;;;1.25;;
2874;SDS011;1445;52.600;13.328;2023-07-30T05:06:01;2.40;;;1.35;;
2874;SDS011;1445;52.600;13.328;2023-07-30T05:08:27;1.35;;;1.25;;
2874;SDS011;1445;52.600;13.328;2023-07-30T05:10:53;1.20;;;1.10;;
2874;SDS011;1445;52.600;13.328;2023-07-30T05:13:18;1.27;;;1.17;;
2874;SDS011;1445;52.600;13.328;2023-07-30T05:15:43;1.88;;;1.50;;
2874;SDS011;1445;52.600;13.328;2023-07-30T05:18:09;3.42;;;1.88;;
2874;SDS011;1445;52.600;13.328;2023-07-30T05:20:34;1.52;;;1.42;;
2874;SDS011;1445;52.600;13.328;2023-07-30T05:23:00;1.42;;;1.33;;
2874;SDS011;1445;52.600;13.328;2023-07-30T05:25:25;1.30;;;1.20;;
2874;SDS011;1445;52.600;13.328;2023-07-30T05:27:50;2.50;;;1.40;;
2874;SDS011;1445;52.600;13.328;2023-07-30T05:30:16;1.98;;;1.15;;
2874;SDS011;1445;52.600;13.328;2023-07-30T05:32:41;1.23;;;1.13;;
2874;SDS011;1445;52.600;13.328;2023-07-30T05:35:07;2.05;;;1.25;;
2874;SDS011;1445;52.600;13.328;2023-07-30T05:37:32;1.08;;;0.75;;
2874;SDS011;1445;52.600;13.328;2023-07-30T05:39:57;1.30;;;0.93;;
2874;SDS011;1445;52.600;13.328;2023-07-30T05:42:23;1.75;;;1.20;;
2874;SDS011;1445;52.600;13.328;2023-07-30T05:44:48;1.30;;;0.82;;
2874;SDS011;1445;52.600;13.328;2023-07-30T05:47:14;0.68;;;0.50;;
2874;SDS011;1445;52.600;13.328;2023-07-30T05:49:39;0.93;;;0.93;;
2874;SDS011;1445;52.600;13.328;2023-07-30T05:52:04;1.48;;;1.20;;
2874;SDS011;1445;52.600;13.328;2023-07-30T05:54:30;0.60;;;0.60;;
2874;SDS011;1445;52.600;13.328;2023-07-30T05:56:56;2.05;;;1.10;;
2874;SDS011;1445;52.600;13.328;2023-07-30T05:59:21;0.82;;;0.82;;
2874;SDS011;1445;52.600;13.328;2023-07-30T06:01:47;0.80;;;0.70;;
2874;SDS011;1445;52.600;13.328;2023-07-30T06:04:12;2.22;;;0.88;;
2874;SDS011;1445;52.600;13.328;2023-07-30T06:06:37;1.60;;;1.35;;
2874;SDS011;1445;52.600;13.328;2023-07-30T06:09:03;1.38;;;1.25;;
2874;SDS011;1445;52.600;13.328;2023-07-30T06:11:28;5.35;;;0.98;;
2874;SDS011;1445;52.600;13.328;2023-07-30T06:13:54;2.25;;;1.02;;
2874;SDS011;1445;52.600;13.328;2023-07-30T06:16:19;1.30;;;1.20;;
2874;SDS011;1445;52.600;13.328;2023-07-30T06:18:47;2.63;;;1.60;;
2874;SDS011;1445;52.600;13.328;2023-07-30T06:21:13;0.60;;;0.60;;
2874;SDS011;1445;52.600;13.328;2023-07-30T06:23:38;1.23;;;0.90;;
2874;SDS011;1445;52.600;13.328;2023-07-30T06:26:03;1.50;;;1.27;;
2874;SDS011;1445;52.600;13.328;2023-07-30T06:28:29;2.05;;;0.88;;
2874;SDS011;1445;52.600;13.328;2023-07-30T06:30:54;0.65;;;0.60;;
2874;SDS011;1445;52.600;13.328;2023-07-30T06:33:20;0.77;;;0.77;;
2874;SDS011;1445;52.600;13.328;2023-07-30T06:35:45;1.20;;;0.90;;
2874;SDS011;1445;52.600;13.328;2023-07-30T06:38:10;1.13;;;0.93;;
2874;SDS011;1445;52.600;13.328;2023-07-30T06:40:36;0.40;;;0.40;;
2874;SDS011;1445;52.600;13.328;2023-07-30T06:43:01;0.57;;;0.50;;
2874;SDS011;1445;52.600;13.328;2023-07-30T06:45:27;0.55;;;0.55;;
2874;SDS011;1445;52.600;13.328;2023-07-30T06:47:52;1.73;;;1.17;;
2874;SDS011;1445;52.600;13.328;2023-07-30T06:50:18;0.65;;;0.65;;
2874;SDS011;1445;52.600;13.328;2023-07-30T06:52:43;0.50;;;0.50;;
2874;SDS011;1445;52.600;13.328;2023-07-30T06:55:09;0.52;;;0.50;;
2874;SDS011;1445;52.600;13.328;2023-07-30T06:57:34;0.70;;;0.65;;
2874;SDS011;1445;52.600;13.328;2023-07-30T07:00:00;0.65;;;0.65;;
2874;SDS011;1445;52.600;13.328;2023-07-30T07:02:26;2.08;;;1.05;;
2874;SDS011;1445;52.600;13.328;2023-07-30T07:04:51;1.67;;;1.00;;
2874;SDS011;1445;52.600;13.328;2023-07-30T07:07:17;2.78;;;1.08;;
2874;SDS011;1445;52.600;13.328;2023-07-30T07:09:42;0.80;;;0.80;;
2874;SDS011;1445;52.600;13.328;2023-07-30T07:12:07;0.88;;;0.85;;
2874;SDS011;1445;52.600;13.328;2023-07-30T07:14:33;1.75;;;1.17;;
2874;SDS011;1445;52.600;13.328;2023-07-30T07:16:58;0.52;;;0.52;;
2874;SDS011;1445;52.600;13.328;2023-07-30T07:19:24;1.10;;;1.00;;
2874;SDS011;1445;52.600;13.328;2023-07-30T07:21:49;1.52;;;1.25;;
2874;SDS011;1445;52.600;13.328;2023-07-30T07:24:15;1.75;;;1.40;;
2874;SDS011;1445;52.600;13.328;2023-07-30T07:26:41;1.10;;;0.70;;
2874;SDS011;1445;52.600;13.328;2023-07-30T07:29:06;1.13;;;1.02;;
2874;SDS011;1445;52.600;13.328;2023-07-30T07:31:32;1.08;;;0.93;;
2874;SDS011;1445;52.600;13.328;2023-07-30T07:33:57;0.75;;;0.65;;
2874;SDS011;1445;52.600;13.328;2023-07-30T07:36:23;1.55;;;1.02;;
2874;SDS011;1445;52.600;13.328;2023-07-30T07:38:48;0.70;;;0.70;;
2874;SDS011;1445;52.600;13.328;2023-07-30T07:41:14;0.63;;;0.60;;
2874;SDS011;1445;52.600;13.328;2023-07-30T07:43:41;1.10;;;0.68;;
2874;SDS011;1445;52.600;13.328;2023-07-30T07:46:07;2.22;;;1.85;;
2874;SDS011;1445;52.600;13.328;2023-07-30T07:48:38;1.42;;;1.02;;
2874;SDS011;1445;52.600;13.328;2023-07-30T07:51:08;1.17;;;1.08;;
2874;SDS011;1445;52.600;13.328;2023-07-30T07:53:34;1.40;;;1.15;;
2874;SDS011;1445;52.600;13.328;2023-07-30T07:55:59;1.52;;;0.82;;
2874;SDS011;1445;52.600;13.328;2023-07-30T07:58:26;0.52;;;0.52;;
2874;SDS011;1445;52.600;13.328;2023-07-30T08:00:54;1.13;;;1.02;;
2874;SDS011;1445;52.600;13.328;2023-07-30T08:03:20;0.93;;;0.60;;
2874;SDS011;1445;52.600;13.328;2023-07-30T08:05:46;0.70;;;0.60;;
2874;SDS011;1445;52.600;13.328;2023-07-30T08:08:11;0.70;;;0.70;;
2874;SDS011;1445;52.600;13.328;2023-07-30T08:10:39;1.33;;;1.23;;
2874;SDS011;1445;52.600;13.328;2023-07-30T08:13:08;2.58;;;0.85;;
2874;SDS011;1445;52.600;13.328;2023-07-30T08:15:36;0.60;;;0.60;;
2874;SDS011;1445;52.600;13.328;2023-07-30T08:18:02;1.17;;;1.08;;
2874;SDS011;1445;52.600;13.328;2023-07-30T08:20:27;0.80;;;0.80;;
2874;SDS011;1445;52.600;13.328;2023-07-30T08:22:53;1.98;;;1.00;;
2874;SDS011;1445;52.600;13.328;2023-07-30T08:25:18;0.60;;;0.60;;
2874;SDS011;1445;52.600;13.328;2023-07-30T08:27:44;1.20;;;0.95;;
2874;SDS011;1445;52.600;13.328;2023-07-30T08:30:09;0.77;;;0.55;;
2874;SDS011;1445;52.600;13.328;2023-07-30T08:32:35;1.02;;;0.88;;
2874;SDS011;1445;52.600;13.328;2023-07-30T08:35:01;0.82;;;0.82;;
2874;SDS011;1445;52.600;13.328;2023-07-30T08:37:26;1.17;;;0.75;;
2874;SDS011;1445;52.600;13.328;2023-07-30T08:39:52;0.88;;;0.68;;
2874;SDS011;1445;52.600;13.328;2023-07-30T08:42:17;0.60;;;0.60;;
2874;SDS011;1445;52.600;13.328;2023-07-30T08:44:43;1.05;;;0.82;;
2874;SDS011;1445;52.600;13.328;2023-07-30T08:47:09;0.50;;;0.50;;
2874;SDS011;1445;52.600;13.328;2023-07-30T08:49:35;0.45;;;0.45;;
2874;SDS011;1445;52.600;13.328;2023-07-30T08:52:01;0.57;;;0.57;;
2874;SDS011;1445;52.600;13.328;2023-07-30T08:54:29;0.40;;;0.40;;
2874;SDS011;1445;52.600;13.328;2023-07-30T08:56:57;0.70;;;0.60;;
2874;SDS011;1445;52.600;13.328;2023-07-30T08:59:23;0.50;;;0.50;;
2874;SDS011;1445;52.600;13.328;2023-07-30T09:01:53;1.02;;;0.90;;
2874;SDS011;1445;52.600;13.328;2023-07-30T09:04:19;0.82;;;0.70;;
2874;SDS011;1445;52.600;13.328;2023-07-30T09:06:48;0.60;;;0.60;;
2874;SDS011;1445;52.600;13.328;2023-07-30T09:09:15;0.60;;;0.60;;
2874;SDS011;1445;52.600;13.328;2023-07-30T09:11:40;0.43;;;0.43;;
2874;SDS011;1445;52.600;13.328;2023-07-30T09:14:06;0.47;;;0.47;;
2874;SDS011;1445;52.600;13.328;2023-07-30T09:16:32;0.85;;;0.85;;
2874;SDS011;1445;52.600;13.328;2023-07-30T09:18:57;0.40;;;0.40;;
2874;SDS011;1445;52.600;13.328;2023-07-30T09:21:29;0.63;;;0.63;;
2874;SDS011;1445;52.600;13.328;2023-07-30T09:24:01;2.33;;;1.02;;
2874;SDS011;1445;52.600;13.328;2023-07-30T09:26:44;0.57;;;0.52;;
2874;SDS011;1445;52.600;13.328;2023-07-30T09:29:10;1.13;;;0.63;;
2874;SDS011;1445;52.600;13.328;2023-07-30T09:31:46;1.50;;;0.60;;
2874;SDS011;1445;52.600;13.328;2023-07-30T09:34:19;0.43;;;0.43;;
2874;SDS011;1445;52.600;13.328;2023-07-30T09:36:45;0.45;;;0.45;;
2874;SDS011;1445;52.600;13.328;2023-07-30T09:39:15;1.13;;;0.88;;
2874;SDS011;1445;52.600;13.328;2023-07-30T09:41:51;0.50;;;0.50;;
2874;SDS011;1445;52.600;13.328;2023-07-30T09:44:25;0.55;;;0.50;;
2874;SDS011;1445;52.600;13.328;2023-07-30T09:46:50;0.77;;;0.30;;
2874;SDS011;1445;52.600;13.328;2023-07-30T09:49:17;2.00;;;0.73;;
2874;SDS011;1445;52.600;13.328;2023-07-30T09:51:43;0.80;;;0.80;;
2874;SDS011;1445;52.600;13.328;2023-07-30T09:54:10;5.78;;;0.63;;
2874;SDS011;1445;52.600;13.328;2023-07-30T09:56:37;0.45;;;0.45;;
2874;SDS011;1445;52.600;13.328;2023-07-30T09:59:04;0.50;;;0.50;;
2874;SDS011;1445;52.600;13.328;2023-07-30T10:01:30;0.60;;;0.50;;
2874;SDS011;1445;52.600;13.328;2023-07-30T10:03:57;1.40;;;0.98;;
2874;SDS011;1445;52.600;13.328;2023-07-30T10:06:27;0.60;;;0.60;;
2874;SDS011;1445;52.600;13.328;2023-07-30T10:08:56;0.50;;;0.50;;
2874;SDS011;1445;52.600;13.328;2023-07-30T10:11:25;0.47;;;0.47;;
2874;SDS011;1445;52.600;13.328;2023-07-30T10:13:52;1.30;;;0.75;;
2874;SDS011;1445;52.600;13.328;2023-07-30T10:16:19;0.75;;;0.73;;
2874;SDS011;1445;52.600;13.328;2023-07-30T10:18:52;0.70;;;0.70;;
2874;SDS011;1445;52.600;13.328;2023-07-30T10:21:23;0.45;;;0.45;;
2874;SDS011;1445;52.600;13.328;2023-07-30T10:23:50;0.30;;;0.30;;
2874;SDS011;1445;52.600;13.328;2023-07-30T10:26:35;1.60;;;1.15;;
2874;SDS011;1445;52.600;13.328;2023-07-30T10:31:57;1.25;;;1.05;;
2874;SDS011;1445;52.600;13.328;2023-07-30T10:34:25;0.25;;;0.25;;
2874;SDS011;1445;52.600;13.328;2023-07-30T10:36:52;0.98;;;0.80;;
2874;SDS011;1445;52.600;13.328;2023-07-30T10:39:21;0.50;;;0.40;;
2874;SDS011;1445;52.600;13.328;2023-07-30T10:41:53;0.55;;;0.55;;
2874;SDS011;1445;52.600;13.328;2023-07-30T10:44:24;1.77;;;0.77;;
2874;SDS011;1445;52.600;13.328;2023-07-30T10:46:56;3.40;;;1.27;;
2874;SDS011;1445;52.600;13.328;2023-07-30T10:49:24;0.20;;;0.20;;
2874;SDS011;1445;52.600;13.328;2023-07-30T10:51:54;0.45;;;0.40;;
2874;SDS011;1445;52.600;13.328;2023-07-30T10:54:20;0.40;;;0.40;;
2874;SDS011;1445;52.600;13.328;2023-07-30T10:56:46;0.73;;;0.73;;
2874;SDS011;1445;52.600;13.328;2023-07-30T10:59:12;4.38;;;0.82;;
2874;SDS011;1445;52.600;13.328;2023-07-30T11:01:38;1.10;;;0.68;;
2874;SDS011;1445;52.600;13.328;2023-07-30T11:04:09;0.73;;;0.50;;
2874;SDS011;1445;52.600;13.328;2023-07-30T11:06:49;1.30;;;0.77;;
2874;SDS011;1445;52.600;13.328;2023-07-30T11:09:25;9.85;;;0.93;;
2874;SDS011;1445;52.600;13.328;2023-07-30T11:11:53;3.53;;;0.80;;
2874;SDS011;1445;52.600;13.328;2023-07-30T11:14:22;2.70;;;0.90;;
2874;SDS011;1445;52.600;13.328;2023-07-30T11:16:54;0.30;;;0.30;;
2874;SDS011;1445;52.600;13.328;2023-07-30T11:19:23;0.50;;;0.50;;
2874;SDS011;1445;52.600;13.328;2023-07-30T11:21:50;0.40;;;0.40;;
2874;SDS011;1445;52.600;13.328;2023-07-30T11:24:17;0.75;;;0.75;;
2874;SDS011;1445;52.600;13.328;2023-07-30T11:26:43;1.00;;;0.70;;
2874;SDS011;1445;52.600;13.328;2023-07-30T11:29:19;0.28;;;0.28;;
2874;SDS011;1445;52.600;13.328;2023-07-30T11:31:45;0.28;;;0.28;;
2874;SDS011;1445;52.600;13.328;2023-07-30T11:34:12;1.17;;;0.68;;
2874;SDS011;1445;52.600;13.328;2023-07-30T11:36:39;0.30;;;0.30;;
2874;SDS011;1445;52.600;13.328;2023-07-30T11:39:06;0.63;;;0.63;;
2874;SDS011;1445;52.600;13.328;2023-07-30T11:41:32;0.43;;;0.40;;
2874;SDS011;1445;52.600;13.328;2023-07-30T11:43:58;3.97;;;0.68;;
2874;SDS011;1445;52.600;13.328;2023-07-30T11:46:24;0.22;;;0.22;;
2874;SDS011;1445;52.600;13.328;2023-07-30T11:48:50;0.50;;;0.50;;
2874;SDS011;1445;52.600;13.328;2023-07-30T11:51:27;1.52;;;0.55;;
2874;SDS011;1445;52.600;13.328;2023-07-30T11:53:59;1.05;;;0.82;;
2874;SDS011;1445;52.600;13.328;2023-07-30T11:56:29;1.35;;;0.55;;
2874;SDS011;1445;52.600;13.328;2023-07-30T11:58:59;0.73;;;0.60;;
2874;SDS011;1445;52.600;13.328;2023-07-30T12:01:31;1.20;;;0.73;;
2874;SDS011;1445;52.600;13.328;2023-07-30T12:03:59;0.65;;;0.60;;
2874;SDS011;1445;52.600;13.328;2023-07-30T12:09:09;0.30;;;0.30;;
2874;SDS011;1445;52.600;13.328;2023-07-30T12:11:36;0.70;;;0.65;;
2874;SDS011;1445;52.600;13.328;2023-07-30T12:14:09;0.65;;;0.57;;
2874;SDS011;1445;52.600;13.328;2023-07-30T12:16:35;0.63;;;0.52;;
2874;SDS011;1445;52.600;13.328;2023-07-30T12:19:00;0.40;;;0.40;;
2874;SDS011;1445;52.600;13.328;2023-07-30T12:21:25;0.30;;;0.30;;
2874;SDS011;1445;52.600;13.328;2023-07-30T12:23:51;0.52;;;0.50;;
2874;SDS011;1445;52.600;13.328;2023-07-30T12:26:16;0.70;;;0.70;;
2874;SDS011;1445;52.600;13.328;2023-07-30T12:28:41;1.80;;;0.60;;
2874;SDS011;1445;52.600;13.328;2023-07-30T12:31:07;0.82;;;0.40;;
2874;SDS011;1445;52.600;13.328;2023-07-30T12:33:32;0.63;;;0.47;;
2874;SDS011;1445;52.600;13.328;2023-07-30T12:35:58;5.10;;;0.65;;
2874;SDS011;1445;52.600;13.328;2023-07-30T12:38:23;0.68;;;0.50;;
2874;SDS011;1445;52.600;13.328;2023-07-30T12:40:48;0.70;;;0.63;;
2874;SDS011;1445;52.600;13.328;2023-07-30T12:43:15;0.40;;;0.40;;
2874;SDS011;1445;52.600;13.328;2023-07-30T12:45:41;0.75;;;0.50;;
2874;SDS011;1445;52.600;13.328;2023-07-30T12:48:07;0.35;;;0.35;;
2874;SDS011;1445;52.600;13.328;2023-07-30T12:50:33;1.10;;;0.77;;
2874;SDS011;1445;52.600;13.328;2023-07-30T12:52:58;2.88;;;0.82;;
2874;SDS011;1445;52.600;13.328;2023-07-30T12:55:23;0.60;;;0.60;;
2874;SDS011;1445;52.600;13.328;2023-07-30T12:57:49;0.73;;;0.40;;
2874;SDS011;1445;52.600;13.328;2023-07-30T13:00:14;0.50;;;0.50;;
2874;SDS011;1445;52.600;13.328;2023-07-30T13:02:41;0.45;;;0.45;;
2874;SDS011;1445;52.600;13.328;2023-07-30T13:05:06;0.77;;;0.57;;
2874;SDS011;1445;52.600;13.328;2023-07-30T13:07:32;1.10;;;0.68;;
2874;SDS011;1445;52.600;13.328;2023-07-30T13:10:04;0.85;;;0.82;;
2874;SDS011;1445;52.600;13.328;2023-07-30T13:14:56;0.40;;;0.40;;
2874;SDS011;1445;52.600;13.328;2023-07-30T13:17:22;0.68;;;0.68;;
2874;SDS011;1445;52.600;13.328;2023-07-30T13:19:47;0.73;;;0.60;;
2874;SDS011;1445;52.600;13.328;2023-07-30T13:22:13;0.82;;;0.65;;
2874;SDS011;1445;52.600;13.328;2023-07-30T13:24:38;0.55;;;0.47;;
2874;SDS011;1445;52.600;13.328;2023-07-30T13:27:04;0.60;;;0.60;;
2874;SDS011;1445;52.600;13.328;2023-07-30T13:29:30;1.27;;;1.05;;
2874;SDS011;1445;52.600;13.328;2023-07-30T13:31:56;0.20;;;0.20;;
2874;SDS011;1445;52.600;13.328;2023-07-30T13:34:21;0.70;;;0.55;;
2874;SDS011;1445;52.600;13.328;2023-07-30T13:36:47;0.68;;;0.65;;
2874;SDS011;1445;52.600;13.328;2023-07-30T13:39:12;1.15;;;0.70;;
2874;SDS011;1445;52.600;13.328;2023-07-30T13:41:38;1.33;;;0.60;;
2874;SDS011;1445;52.600;13.328;2023-07-30T13:44:03;0.77;;;0.68;;
2874;SDS011;1445;52.600;13.328;2023-07-30T13:46:28;4.85;;;0.95;;
2874;SDS011;1445;52.600;13.328;2023-07-30T13:48:54;0.85;;;0.82;;
2874;SDS011;1445;52.600;13.328;2023-07-30T13:51:19;0.65;;;0.52;;
2874;SDS011;1445;52.600;13.328;2023-07-30T13:53:45;0.45;;;0.43;;
2874;SDS011;1445;52.600;13.328;2023-07-30T13:56:10;1.13;;;0.65;;
2874;SDS011;1445;52.600;13.328;2023-07-30T13:58:35;0.30;;;0.30;;
2874;SDS011;1445;52.600;13.328;2023-07-30T14:01:01;0.47;;;0.47;;
2874;SDS011;1445;52.600;13.328;2023-07-30T14:03:26;1.40;;;0.65;;
2874;SDS011;1445;52.600;13.328;2023-07-30T14:05:51;0.22;;;0.22;;
2874;SDS011;1445;52.600;13.328;2023-07-30T14:08:17;0.20;;;0.20;;
2874;SDS011;1445;52.600;13.328;2023-07-30T14:10:42;0.50;;;0.50;;
2874;SDS011;1445;52.600;13.328;2023-07-30T14:13:08;0.47;;;0.40;;
2874;SDS011;1445;52.600;13.328;2023-07-30T14:15:33;1.20;;;0.80;;
2874;SDS011;1445;52.600;13.328;2023-07-30T14:17:58;0.30;;;0.30;;
2874;SDS011;1445;52.600;13.328;2023-07-30T14:20:24;0.28;;;0.28;;
2874;SDS011;1445;52.600;13.328;2023-07-30T14:22:49;0.75;;;0.55;;
2874;SDS011;1445;52.600;13.328;2023-07-30T14:25:16;0.50;;;0.50;;
2874;SDS011;1445;52.600;13.328;2023-07-30T14:27:42;4.07;;;0.60;;
2874;SDS011;1445;52.600;13.328;2023-07-30T14:30:07;0.30;;;0.30;;
2874;SDS011;1445;52.600;13.328;2023-07-30T14:32:33;0.20;;;0.20;;
2874;SDS011;1445;52.600;13.328;2023-07-30T14:34:59;0.30;;;0.30;;
2874;SDS011;1445;52.600;13.328;2023-07-30T14:37:24;1.40;;;0.75;;
2874;SDS011;1445;52.600;13.328;2023-07-30T14:39:49;0.20;;;0.20;;
2874;SDS011;1445;52.600;13.328;2023-07-30T14:42:15;1.75;;;0.57;;
2874;SDS011;1445;52.600;13.328;2023-07-30T14:44:40;0.65;;;0.52;;
2874;SDS011;1445;52.600;13.328;2023-07-30T14:47:05;0.90;;;0.55;;
2874;SDS011;1445;52.600;13.328;2023-07-30T14:49:33;0.40;;;0.40;;
2874;SDS011;1445;52.600;13.328;2023-07-30T14:51:58;0.40;;;0.40;;
2874;SDS011;1445;52.600;13.328;2023-07-30T14:54:24;0.50;;;0.50;;
2874;SDS011;1445;52.600;13.328;2023-07-30T14:56:49;0.57;;;0.57;;
2874;SDS011;1445;52.600;13.328;2023-07-30T14:59:15;4.75;;;1.60;;
2874;SDS011;1445;52.600;13.328;2023-07-30T15:01:40;1.13;;;0.50;;
2874;SDS011;1445;52.600;13.328;2023-07-30T15:04:05;0.20;;;0.20;;
2874;SDS011;1445;52.600;13.328;2023-07-30T15:06:31;0.68;;;0.68;;